Terminal Aerodrome Forecast
Issued by NWS Upton, NY

Current Version | Previous Version | Text Only | Print | Product List | Glossary On
Versions: 1 2 3 4 5 6 7 8 9 10 11 12 13 14 15 16 17 18 19 20 21 22 23 24 25 26 27
000
FTUS41 KOKX 210200 AAA
TAFISP
TAF AMD
KISP 210231Z 2103/2124 21006KT P6SM FEW035 SCT150 BKN250
     FM210600 18004KT P6SM SCT035 OVC100
     FM211500 14004KT P6SM -RA BKN035 OVC070=

USA.gov is the U.S. government's official web portal to all federal, state and local government web resources and services.